Time,TemperatureF,DewpointF,PressureIn,WindDirection,WindDirectionDegrees,WindSpeedMPH,WindSpeedGustMPH,Humidity,HourlyPrecipIn,Conditions,Clouds,dailyrainin,SoftwareType,DateUTC
2013-07-04 00:10:00,77.9,59.0,29.96,East,79,5.0,5.0,53,0.00,,,0.00,weatherlink.com 1.10,2013-07-04 05:10:00,
2013-07-04 00:25:00,78.1,59.0,29.96,ESE,104,3.0,5.0,53,0.00,,,0.00,weatherlink.com 1.10,2013-07-04 05:25:00,
2013-07-04 00:40:00,77.9,60.0,29.96,ENE,75,4.0,6.0,55,0.00,,,0.00,weatherlink.com 1.10,2013-07-04 05:40:00,
2013-07-04 00:55:00,77.8,61.0,29.97,ESE,117,4.0,5.0,56,0.00,,,0.00,weatherlink.com 1.10,2013-07-04 05:55:00,
2013-07-04 01:10:00,77.5,61.0,29.96,ESE,104,2.0,3.0,58,0.00,,,0.00,weatherlink.com 1.10,2013-07-04 06:10:00,
2013-07-04 01:25:00,77.2,62.0,29.96,ESE,103,2.0,4.0,59,0.00,,,0.00,weatherlink.com 1.10,2013-07-04 06:25:00,
2013-07-04 01:40:00,76.6,62.0,29.96,ESE,118,3.0,5.0,60,0.00,,,0.00,weatherlink.com 1.10,2013-07-04 06:40:00,
2013-07-04 01:55:00,76.3,62.0,29.96,East,92,3.0,4.0,62,0.00,,,0.00,weatherlink.com 1.10,2013-07-04 06:55:00,
2013-07-04 02:10:00,75.8,62.0,29.96,ESE,102,2.0,4.0,63,0.00,,,0.00,weatherlink.com 1.10,2013-07-04 07:10:00,
2013-07-04 02:26:00,75.7,62.0,29.96,SE,124,3.0,4.0,63,0.00,,,0.00,weatherlink.com 1.10,2013-07-04 07:26:00,
2013-07-04 02:41:00,75.4,62.0,29.96,ESE,120,4.0,4.0,64,0.00,,,0.00,weatherlink.com 1.10,2013-07-04 07:41:00,
2013-07-04 02:56:00,74.9,62.0,29.96,East,101,1.0,2.0,65,0.00,,,0.00,weatherlink.com 1.10,2013-07-04 07:56:00,
2013-07-04 03:11:00,74.2,63.0,29.96,East,85,1.0,3.0,67,0.00,,,0.00,weatherlink.com 1.10,2013-07-04 08:11:00,
2013-07-04 03:26:00,73.3,63.0,29.96,ESE,117,2.0,3.0,69,0.00,,,0.00,weatherlink.com 1.10,2013-07-04 08:26:00,
2013-07-04 03:41:00,73.2,62.0,29.96,ESE,111,2.0,3.0,69,0.00,,,0.00,weatherlink.com 1.10,2013-07-04 08:41:00,
2013-07-04 03:56:00,73.0,62.0,29.95,East,95,2.0,4.0,69,0.00,,,0.00,weatherlink.com 1.10,2013-07-04 08:56:00,
2013-07-04 04:11:00,72.9,63.0,29.95,ESE,118,2.0,4.0,70,0.00,,,0.00,weatherlink.com 1.10,2013-07-04 09:11:00,
2013-07-04 04:26:00,72.5,63.0,29.95,ESE,104,1.0,3.0,71,0.00,,,0.00,weatherlink.com 1.10,2013-07-04 09:26:00,
2013-07-04 04:41:00,72.2,63.0,29.95,ESE,114,3.0,4.0,72,0.00,,,0.00,weatherlink.com 1.10,2013-07-04 09:41:00,
2013-07-04 04:56:00,72.2,63.0,29.95,ESE,111,1.0,3.0,73,0.00,,,0.00,weatherlink.com 1.10,2013-07-04 09:56:00,
2013-07-04 05:12:00,71.7,63.0,29.95,SE,124,0.0,2.0,74,0.00,,,0.00,weatherlink.com 1.10,2013-07-04 10:12:00,
2013-07-04 05:26:00,71.2,63.0,29.95,SE,124,0.0,0.0,75,0.00,,,0.00,weatherlink.com 1.10,2013-07-04 10:26:00,
2013-07-04 05:41:00,71.0,63.0,29.95,East,100,0.0,0.0,76,0.00,,,0.00,weatherlink.com 1.10,2013-07-04 10:41:00,
2013-07-04 05:56:00,71.3,63.0,29.96,ESE,112,2.0,2.0,76,0.00,,,0.00,weatherlink.com 1.10,2013-07-04 10:56:00,
2013-07-04 06:11:00,71.7,63.0,29.96,ESE,103,1.0,2.0,75,0.00,,,0.00,weatherlink.com 1.10,2013-07-04 11:11:00,
2013-07-04 06:26:00,71.7,63.0,29.96,ESE,107,1.0,2.0,75,0.00,,,0.00,weatherlink.com 1.10,2013-07-04 11:26:00,
2013-07-04 06:41:00,71.3,63.0,29.96,SE,129,0.0,1.0,76,0.00,,,0.00,weatherlink.com 1.10,2013-07-04 11:41:00,
2013-07-04 06:56:00,71.3,63.0,29.96,SE,133,1.0,2.0,76,0.00,,,0.00,weatherlink.com 1.10,2013-07-04 11:56:00,
2013-07-04 07:11:00,72.0,64.0,29.96,SE,131,2.0,3.0,75,0.00,,,0.00,weatherlink.com 1.10,2013-07-04 12:11:00,
2013-07-04 07:26:00,72.8,64.0,29.96,ESE,115,0.0,3.0,74,0.00,,,0.00,weatherlink.com 1.10,2013-07-04 12:26:00,
2013-07-04 07:41:00,74.8,65.0,29.97,ESE,104,0.0,2.0,71,0.00,,,0.00,weatherlink.com 1.10,2013-07-04 12:41:00,
2013-07-04 07:56:00,76.2,65.0,29.98,ESE,121,2.0,3.0,68,0.00,,,0.00,weatherlink.com 1.10,2013-07-04 12:56:00,
2013-07-04 08:11:00,76.8,65.0,29.98,ESE,121,3.0,4.0,67,0.00,,,0.00,weatherlink.com 1.10,2013-07-04 13:11:00,
2013-07-04 08:26:00,77.6,66.0,29.99,SE,132,1.0,3.0,67,0.00,,,0.00,weatherlink.com 1.10,2013-07-04 13:26:00,
2013-07-04 08:41:00,78.2,66.0,29.99,East,98,2.0,5.0,66,0.00,,,0.00,weatherlink.com 1.10,2013-07-04 13:41:00,
2013-07-04 08:56:00,80.6,67.0,29.99,SW,217,1.0,4.0,64,0.00,,,0.00,weatherlink.com 1.10,2013-07-04 13:56:00,
2013-07-04 09:11:00,82.0,68.0,29.99,ESE,104,4.0,4.0,63,0.00,,,0.00,weatherlink.com 1.10,2013-07-04 14:11:00,
2013-07-04 09:26:00,82.4,69.0,29.99,ESE,122,0.0,5.0,63,0.00,,,0.00,weatherlink.com 1.10,2013-07-04 14:26:00,
2013-07-04 09:41:00,85.0,69.0,29.99,SSW,208,1.0,4.0,59,0.00,,,0.00,weatherlink.com 1.10,2013-07-04 14:41:00,
2013-07-04 09:56:00,84.6,67.0,29.99,SSW,193,1.0,6.0,55,0.00,,,0.00,weatherlink.com 1.10,2013-07-04 14:56:00,
2013-07-04 10:11:00,86.2,68.0,29.99,ESE,122,2.0,5.0,54,0.00,,,0.00,weatherlink.com 1.10,2013-07-04 15:11:00,
2013-07-04 10:26:00,87.4,67.0,29.98,East,94,4.0,5.0,51,0.00,,,0.00,weatherlink.com 1.10,2013-07-04 15:26:00,
2013-07-04 10:41:00,87.1,68.0,29.98,SSE,168,1.0,6.0,53,0.00,,,0.00,weatherlink.com 1.10,2013-07-04 15:41:00,
2013-07-04 10:56:00,87.8,68.0,29.97,SW,236,3.0,6.0,52,0.00,,,0.00,weatherlink.com 1.10,2013-07-04 15:56:00,
2013-07-04 11:12:00,89.5,67.0,29.97,ESE,113,5.0,7.0,47,0.00,,,0.00,weatherlink.com 1.10,2013-07-04 16:12:00,
2013-07-04 11:27:00,90.5,66.0,29.97,ESE,109,8.0,10.0,45,0.00,,,0.00,weatherlink.com 1.10,2013-07-04 16:27:00,
2013-07-04 11:42:00,89.9,66.0,29.96,SE,131,3.0,9.0,45,0.00,,,0.00,weatherlink.com 1.10,2013-07-04 16:42:00,
2013-07-04 11:57:00,91.8,66.0,29.96,South,177,1.0,5.0,43,0.00,,,0.00,weatherlink.com 1.10,2013-07-04 16:57:00,
2013-07-04 12:12:00,92.1,66.0,29.96,West,271,3.0,7.0,42,0.00,,,0.00,weatherlink.com 1.10,2013-07-04 17:12:00,
2013-07-04 12:27:00,92.9,66.0,29.95,SE,130,4.0,8.0,41,0.00,,,0.00,weatherlink.com 1.10,2013-07-04 17:27:00,
2013-07-04 12:42:00,92.6,65.0,29.95,SE,131,3.0,6.0,40,0.00,,,0.00,weatherlink.com 1.10,2013-07-04 17:42:00,
2013-07-04 12:57:00,93.1,64.0,29.94,NW,321,5.0,6.0,38,0.00,,,0.00,weatherlink.com 1.10,2013-07-04 17:57:00,
2013-07-04 13:12:00,92.0,64.0,29.94,SE,124,0.0,6.0,40,0.00,,,0.00,weatherlink.com 1.10,2013-07-04 18:12:00,
2013-07-04 13:27:00,94.5,64.0,29.93,SE,124,3.0,8.0,37,0.00,,,0.00,weatherlink.com 1.10,2013-07-04 18:27:00,
2013-07-04 13:42:00,94.0,64.0,29.93,SW,235,2.0,6.0,37,0.00,,,0.00,weatherlink.com 1.10,2013-07-04 18:42:00,
2013-07-04 13:57:00,93.0,62.0,29.92,SW,221,1.0,8.0,35,0.00,,,0.00,weatherlink.com 1.10,2013-07-04 18:57:00,
2013-07-04 14:12:00,95.1,63.0,29.91,SE,134,1.0,8.0,35,0.00,,,0.00,weatherlink.com 1.10,2013-07-04 19:12:00,
2013-07-04 14:27:00,96.8,65.0,29.91,WSW,245,2.0,7.0,35,0.00,,,0.00,weatherlink.com 1.10,2013-07-04 19:27:00,
2013-07-04 14:42:00,97.4,63.0,29.91,ESE,116,2.0,5.0,32,0.00,,,0.00,weatherlink.com 1.10,2013-07-04 19:42:00,
2013-07-04 14:57:00,97.4,62.0,29.90,ESE,123,1.0,8.0,31,0.00,,,0.00,weatherlink.com 1.10,2013-07-04 19:57:00,
2013-07-04 15:12:00,96.8,61.0,29.89,NNE,15,1.0,6.0,30,0.00,,,0.00,weatherlink.com 1.10,2013-07-04 20:12:00,
2013-07-04 15:27:00,97.2,60.0,29.89,SSW,211,5.0,6.0,29,0.00,,,0.00,weatherlink.com 1.10,2013-07-04 20:27:00,
2013-07-04 15:42:00,96.1,61.0,29.88,ESE,116,4.0,8.0,31,0.00,,,0.00,weatherlink.com 1.10,2013-07-04 20:42:00,
2013-07-04 15:57:00,92.5,63.0,29.89,ESE,116,6.0,12.0,38,0.00,,,0.00,weatherlink.com 1.10,2013-07-04 20:57:00,
2013-07-04 16:12:00,90.9,64.0,29.88,ESE,110,5.0,12.0,41,0.00,,,0.00,weatherlink.com 1.10,2013-07-04 21:12:00,
2013-07-04 16:27:00,91.3,63.0,29.88,ESE,119,8.0,11.0,39,0.00,,,0.00,weatherlink.com 1.10,2013-07-04 21:27:00,
2013-07-04 16:42:00,92.4,63.0,29.87,East,96,6.0,9.0,38,0.00,,,0.00,weatherlink.com 1.10,2013-07-04 21:42:00,
2013-07-04 16:57:00,93.4,64.0,29.87,SSE,153,4.0,10.0,38,0.00,,,0.00,weatherlink.com 1.10,2013-07-04 21:57:00,
2013-07-04 17:12:00,93.2,63.0,29.87,ENE,78,5.0,7.0,36,0.00,,,0.00,weatherlink.com 1.10,2013-07-04 22:12:00,
2013-07-04 17:27:00,93.5,62.0,29.86,ENE,77,4.0,7.0,35,0.00,,,0.00,weatherlink.com 1.10,2013-07-04 22:27:00,
2013-07-04 17:42:00,93.9,62.0,29.86,ESE,109,3.0,8.0,35,0.00,,,0.00,weatherlink.com 1.10,2013-07-04 22:42:00,
2013-07-04 17:57:00,92.9,62.0,29.86,East,83,7.0,9.0,36,0.00,,,0.00,weatherlink.com 1.10,2013-07-04 22:57:00,
2013-07-04 18:12:00,92.4,62.0,29.86,ESE,115,5.0,9.0,36,0.00,,,0.00,weatherlink.com 1.10,2013-07-04 23:12:00,
2013-07-04 18:27:00,91.9,64.0,29.86,ESE,109,7.0,10.0,39,0.00,,,0.00,weatherlink.com 1.10,2013-07-04 23:27:00,
2013-07-04 18:42:00,91.2,63.0,29.86,ESE,113,3.0,12.0,39,0.00,,,0.00,weatherlink.com 1.10,2013-07-04 23:42:00,
2013-07-04 18:57:00,90.9,62.0,29.87,East,83,10.0,10.0,38,0.00,,,0.00,weatherlink.com 1.10,2013-07-04 23:57:00,
2013-07-04 19:12:00,90.0,63.0,29.87,ENE,71,7.0,12.0,41,0.00,,,0.00,weatherlink.com 1.10,2013-07-05 00:12:00,
2013-07-04 19:27:00,88.6,63.0,29.87,SE,139,2.0,16.0,42,0.00,,,0.00,weatherlink.com 1.10,2013-07-05 00:27:00,
2013-07-04 19:42:00,86.9,65.0,29.87,ESE,102,9.0,13.0,48,0.00,,,0.00,weatherlink.com 1.10,2013-07-05 00:42:00,
2013-07-04 19:57:00,84.9,64.0,29.89,East,96,7.0,13.0,50,0.00,,,0.00,weatherlink.com 1.10,2013-07-05 00:57:00,
2013-07-04 20:12:00,83.9,63.0,29.89,SE,129,6.0,13.0,50,0.00,,,0.00,weatherlink.com 1.10,2013-07-05 01:12:00,
2013-07-04 20:27:00,83.2,64.0,29.89,ESE,105,4.0,9.0,52,0.00,,,0.00,weatherlink.com 1.10,2013-07-05 01:27:00,
2013-07-04 20:42:00,82.3,63.0,29.89,ESE,113,4.0,11.0,53,0.00,,,0.00,weatherlink.com 1.10,2013-07-05 01:42:00,
2013-07-04 20:57:00,81.1,63.0,29.90,ESE,111,4.0,9.0,55,0.00,,,0.00,weatherlink.com 1.10,2013-07-05 01:57:00,
2013-07-04 21:13:00,80.2,63.0,29.90,East,89,5.0,8.0,56,0.00,,,0.00,weatherlink.com 1.10,2013-07-05 02:13:00,
2013-07-04 21:28:00,79.6,63.0,29.92,East,94,5.0,9.0,57,0.00,,,0.00,weatherlink.com 1.10,2013-07-05 02:28:00,
2013-07-04 21:43:00,78.8,63.0,29.92,ESE,113,4.0,6.0,59,0.00,,,0.00,weatherlink.com 1.10,2013-07-05 02:43:00,
2013-07-04 21:58:00,78.2,64.0,29.92,East,84,5.0,6.0,61,0.00,,,0.00,weatherlink.com 1.10,2013-07-05 02:58:00,
2013-07-04 22:13:00,77.6,63.0,29.93,ESE,113,5.0,7.0,62,0.00,,,0.00,weatherlink.com 1.10,2013-07-05 03:13:00,
2013-07-04 22:28:00,77.1,64.0,29.93,ESE,108,3.0,6.0,64,0.00,,,0.00,weatherlink.com 1.10,2013-07-05 03:28:00,
2013-07-04 22:43:00,76.8,64.0,29.93,East,98,3.0,6.0,65,0.00,,,0.00,weatherlink.com 1.10,2013-07-05 03:43:00,
2013-07-04 22:58:00,76.6,65.0,29.93,East,96,2.0,6.0,67,0.00,,,0.00,weatherlink.com 1.10,2013-07-05 03:58:00,
2013-07-04 23:13:00,75.9,65.0,29.93,East,82,4.0,7.0,69,0.00,,,0.00,weatherlink.com 1.10,2013-07-05 04:13:00,
2013-07-04 23:28:00,75.3,65.0,29.93,East,92,4.0,4.0,71,0.00,,,0.00,weatherlink.com 1.10,2013-07-05 04:28:00,
2013-07-04 23:43:00,75.3,65.0,29.94,ESE,121,1.0,5.0,71,0.00,,,0.00,weatherlink.com 1.10,2013-07-05 04:43:00,
2013-07-04 23:58:00,75.0,65.0,29.94,ESE,110,2.0,5.0,72,0.00,,,0.00,weatherlink.com 1.10,2013-07-05 04:58:00,